Time;durP1;ratioP1;P1;durP2;ratioP2;P2;SDS_P1;SDS_P2;PMS_P1;PMS_P2;Temp;Humidity;BMP_temperature;BMP_pressure;BME280_temperature;BME280_humidity;BME280_pressure;Samples;Min_cycle;Max_cycle;Signal;HPM_P1;HPM_P2
2024/04/03 00:00:31;;;;;;;;;;;;;;;;;;5013466;28;20330;-66
2024/04/03 00:02:56;;;;;;;;;;;;;;;;;;5013541;28;19917;-66
2024/04/03 00:05:22;;;;;;;;;;;;;;;;;;5013314;28;19922;-66
2024/04/03 00:07:48;;;;;;;;;;;;;;;;;;5013641;28;19931;-66
2024/04/03 00:10:14;;;;;;;;;;;;;;;;;;5013383;28;19917;-66
2024/04/03 00:12:40;;;;;;;;;;;;;;;;;;5013374;28;19909;-65
2024/04/03 00:15:06;;;;;;;;;;;;;;;;;;5013194;28;19918;-65
2024/04/03 00:17:32;;;;;;;;;;;;;;;;;;5012301;28;19917;-66
2024/04/03 00:19:58;;;;;;;;;;;;;;;;;;5013396;28;19933;-66
2024/04/03 00:22:23;;;;;;;;;;;;;;;;;;5012931;28;20269;-66
2024/04/03 00:24:49;;;;;;;;;;;;;;;;;;5013389;28;20004;-66
2024/04/03 00:27:15;;;;;;;;;;;;;;;;;;5016325;28;19910;-65
2024/04/03 00:29:41;;;;;;;;;;;;;;;;;;5013333;28;19913;-66
2024/04/03 00:32:07;;;;;;;;;;;;;;;;;;5013918;28;19910;-66
2024/04/03 00:34:33;;;;;;;;;;;;;;;;;;5012968;28;19916;-65
2024/04/03 00:36:59;;;;;;;;;;;;;;;;;;5014072;28;20333;-66
2024/04/03 00:39:24;;;;;;;;;;;;;;;;;;5013688;28;19981;-66
2024/04/03 00:41:50;;;;;;;;;;;;;;;;;;5014801;28;19916;-65
2024/04/03 00:44:16;;;;;;;;;;;;;;;;;;5016012;28;19968;-65
2024/04/03 00:46:43;;;;;;;;;;;;;;;;;;5014508;28;20000;-66
2024/04/03 00:49:09;;;;;;;;;;;;;;;;;;5013608;28;20372;-66
2024/04/03 00:51:35;;;;;;;;;;;;;;;;;;5013503;28;19971;-65
2024/04/03 00:54:00;;;;;;;;;;;;;;;;;;5012979;28;20299;-65
2024/04/03 00:56:26;;;;;;;;;;;;;;;;;;5012323;28;19975;-65
2024/04/03 00:58:52;;;;;;;;;;;;;;;;;;5013019;28;20081;-65
2024/04/03 01:01:18;;;;;;;;;;;;;;;;;;5012096;28;20371;-65
2024/04/03 01:03:44;;;;;;;;;;;;;;;;;;5012643;28;19992;-65
2024/04/03 01:06:10;;;;;;;;;;;;;;;;;;5012362;28;19968;-65
2024/04/03 01:08:36;;;;;;;;;;;;;;;;;;5012452;28;20004;-65
2024/04/03 01:11:01;;;;;;;;;;;;;;;;;;5012247;28;19910;-65
2024/04/03 01:13:27;;;;;;;;;;;;;;;;;;5012147;28;19953;-65
2024/04/03 01:15:53;;;;;;;;;;;;;;;;;;5011936;28;19913;-65
2024/04/03 01:18:19;;;;;;;;;;;;;;;;;;5012213;28;20000;-65
2024/04/03 01:20:45;;;;;;;;;;;;;;;;;;5012231;28;20296;-66
2024/04/03 01:23:11;;;;;;;;;;;;;;;;;;5011879;28;19963;-65
2024/04/03 01:25:37;;;;;;;;;;;;;;;;;;5012069;28;19917;-65
2024/04/03 01:28:02;;;;;;;;;;;;;;;;;;5011888;28;20000;-65
2024/04/03 01:30:28;;;;;;;;;;;;;;;;;;5011697;28;20272;-65
2024/04/03 01:32:54;;;;;;;;;;;;;;;;;;5012045;28;20056;-66
2024/04/03 01:35:20;;;;;;;;;;;;;;;;;;5011805;28;19922;-65
2024/04/03 01:37:46;;;;;;;;;;;;;;;;;;5012162;28;20468;-65
2024/04/03 01:40:12;;;;;;;;;;;;;;;;;;5011813;28;20347;-66
2024/04/03 01:42:38;;;;;;;;;;;;;;;;;;5011115;28;20013;-65
2024/04/03 01:45:04;;;;;;;;;;;;;;;;;;5011761;28;20018;-65
2024/04/03 01:47:29;;;;;;;;;;;;;;;;;;5012002;28;19913;-65
2024/04/03 01:49:55;;;;;;;;;;;;;;;;;;5011785;28;19913;-65
2024/04/03 01:52:21;;;;;;;;;;;;;;;;;;5011439;28;19937;-65
2024/04/03 01:54:47;;;;;;;;;;;;;;;;;;5011699;28;19976;-65
2024/04/03 01:57:13;;;;;;;;;;;;;;;;;;5011687;28;19968;-64
2024/04/03 01:59:39;;;;;;;;;;;;;;;;;;5011542;28;19916;-65
2024/04/03 02:02:05;;;;;;;;;;;;;;;;;;5011522;28;19910;-65
2024/04/03 02:04:30;;;;;;;;;;;;;;;;;;5011629;28;19909;-65
2024/04/03 02:06:56;;;;;;;;;;;;;;;;;;5011785;28;20347;-66
2024/04/03 02:09:22;;;;;;;;;;;;;;;;;;5011380;28;19916;-66
2024/04/03 02:11:48;;;;;;;;;;;;;;;;;;5011304;28;20000;-66
2024/04/03 02:14:14;;;;;;;;;;;;;;;;;;5011344;28;19909;-66
2024/04/03 02:16:40;;;;;;;;;;;;;;;;;;5011416;28;20322;-66
2024/04/03 02:19:06;;;;;;;;;;;;;;;;;;5011441;28;19913;-66
2024/04/03 02:21:31;;;;;;;;;;;;;;;;;;5011272;28;19959;-66
2024/04/03 02:23:57;;;;;;;;;;;;;;;;;;5018553;28;19909;-66
2024/04/03 02:26:23;;;;;;;;;;;;;;;;;;5017294;28;19910;-66
2024/04/03 02:28:49;;;;;;;;;;;;;;;;;;5017841;28;19960;-65
2024/04/03 02:31:15;;;;;;;;;;;;;;;;;;5027734;28;20390;-65
2024/04/03 02:33:41;;;;;;;;;;;;;;;;;;5015627;28;19952;-66
2024/04/03 02:36:06;;;;;;;;;;;;;;;;;;5015634;28;19921;-65
2024/04/03 02:38:32;;;;;;;;;;;;;;;;;;5020017;28;20004;-66
2024/04/03 02:40:58;;;;;;;;;;;;;;;;;;5026306;28;20403;-66
2024/04/03 02:43:24;;;;;;;;;;;;;;;;;;5026950;28;19941;-66
2024/04/03 02:45:50;;;;;;;;;;;;;;;;;;5024286;28;19918;-66
2024/04/03 02:48:16;;;;;;;;;;;;;;;;;;5031172;28;19960;-65
2024/04/03 02:50:43;;;;;;;;;;;;;;;;;;5023816;28;19913;-66
2024/04/03 02:53:09;;;;;;;;;;;;;;;;;;5030391;28;19909;-66
2024/04/03 02:55:35;;;;;;;;;;;;;;;;;;5017830;28;19975;-66
2024/04/03 02:58:01;;;;;;;;;;;;;;;;;;5021936;28;19917;-66
2024/04/03 03:00:27;;;;;;;;;;;;;;;;;;5032927;28;19917;-66
2024/04/03 03:02:53;;;;;;;;;;;;;;;;;;5025960;28;19909;-65
2024/04/03 03:05:18;;;;;;;;;;;;;;;;;;5020021;28;19913;-66
2024/04/03 03:07:44;;;;;;;;;;;;;;;;;;5026518;28;19917;-65
2024/04/03 03:10:10;;;;;;;;;;;;;;;;;;5033372;28;20417;-66
2024/04/03 03:12:36;;;;;;;;;;;;;;;;;;5025409;28;19933;-66
2024/04/03 03:15:02;;;;;;;;;;;;;;;;;;5027320;28;19913;-66
2024/04/03 03:17:28;;;;;;;;;;;;;;;;;;5023588;28;19913;-66
2024/04/03 03:19:54;;;;;;;;;;;;;;;;;;5025871;28;19920;-66
2024/04/03 03:22:20;;;;;;;;;;;;;;;;;;5024159;28;19992;-65
2024/04/03 03:24:46;;;;;;;;;;;;;;;;;;5016733;28;19995;-66
2024/04/03 03:27:12;;;;;;;;;;;;;;;;;;5029341;28;19909;-65
2024/04/03 03:29:38;;;;;;;;;;;;;;;;;;5024406;28;19917;-65
2024/04/03 03:32:04;;;;;;;;;;;;;;;;;;5019760;28;19967;-65
2024/04/03 03:34:29;;;;;;;;;;;;;;;;;;5022997;28;19909;-65
2024/04/03 03:36:55;;;;;;;;;;;;;;;;;;5020489;28;19909;-65
2024/04/03 03:39:21;;;;;;;;;;;;;;;;;;5028676;28;19995;-65
2024/04/03 03:41:47;;;;;;;;;;;;;;;;;;5015629;28;20390;-65
2024/04/03 03:44:13;;;;;;;;;;;;;;;;;;5021484;28;19955;-65
2024/04/03 03:46:39;;;;;;;;;;;;;;;;;;5021092;28;19909;-65
2024/04/03 03:54:34;;;;;;;;;;;;;;;;;;5013787;28;20351;-65
2024/04/03 03:57:00;;;;;;;;;;;;;;;;;;5013936;28;19970;-66
2024/04/03 03:59:26;;;;;;;;;;;;;;;;;;5013421;28;20295;-65
2024/04/03 04:01:51;;;;;;;;;;;;;;;;;;5013288;28;20000;-65
2024/04/03 04:04:17;;;;;;;;;;;;;;;;;;5013243;28;19916;-64
2024/04/03 04:06:43;;;;;;;;;;;;;;;;;;5013594;28;19910;-65
2024/04/03 04:09:09;;;;;;;;;;;;;;;;;;5013757;28;20376;-66
2024/04/03 04:11:35;;;;;;;;;;;;;;;;;;5013264;28;19960;-65
2024/04/03 04:14:01;;;;;;;;;;;;;;;;;;5013462;28;19916;-65
2024/04/03 04:16:27;;;;;;;;;;;;;;;;;;5013138;28;19925;-65
2024/04/03 04:18:52;;;;;;;;;;;;;;;;;;5013266;28;19964;-65
2024/04/03 04:21:18;;;;;;;;;;;;;;;;;;5014710;28;20366;-65
2024/04/03 04:23:44;;;;;;;;;;;;;;;;;;5026842;28;19953;-65
2024/04/03 04:26:10;;;;;;;;;;;;;;;;;;5015572;28;19913;-65
2024/04/03 04:28:36;;;;;;;;;;;;;;;;;;5022213;28;19913;-66
2024/04/03 04:31:02;;;;;;;;;;;;;;;;;;5030107;28;20027;-66
2024/04/03 04:33:28;;;;;;;;;;;;;;;;;;5014052;28;20371;-65
2024/04/03 04:35:54;;;;;;;;;;;;;;;;;;5013201;28;19979;-66
2024/04/03 04:38:19;;;;;;;;;;;;;;;;;;5013109;28;19913;-65
2024/04/03 04:40:45;;;;;;;;;;;;;;;;;;5012868;28;19914;-65
2024/04/03 04:43:11;;;;;;;;;;;;;;;;;;5012729;28;19925;-65
2024/04/03 04:45:37;;;;;;;;;;;;;;;;;;5012740;28;19960;-65
2024/04/03 04:48:03;;;;;;;;;;;;;;;;;;5012688;28;20273;-65
2024/04/03 04:50:29;;;;;;;;;;;;;;;;;;5012683;28;19913;-65
2024/04/03 04:52:55;;;;;;;;;;;;;;;;;;5012749;28;19914;-65
2024/04/03 04:55:21;;;;;;;;;;;;;;;;;;5012775;28;19909;-66
2024/04/03 04:57:46;;;;;;;;;;;;;;;;;;5012573;28;19913;-65
2024/04/03 05:00:12;;;;;;;;;;;;;;;;;;5012785;28;19913;-65
2024/04/03 05:02:38;;;;;;;;;;;;;;;;;;5011555;28;19920;-65
2024/04/03 05:05:04;;;;;;;;;;;;;;;;;;5012245;28;19909;-65
2024/04/03 05:07:30;;;;;;;;;;;;;;;;;;5015362;28;19976;-66
2024/04/03 05:09:56;;;;;;;;;;;;;;;;;;5024367;28;20288;-66
2024/04/03 05:12:22;;;;;;;;;;;;;;;;;;5024832;28;19910;-65
2024/04/03 05:14:48;;;;;;;;;;;;;;;;;;5019775;28;19917;-66
2024/04/03 05:17:15;;;;;;;;;;;;;;;;;;5013372;28;20326;-66
2024/04/03 05:19:41;;;;;;;;;;;;;;;;;;5012056;28;20391;-66
2024/04/03 05:22:10;;;;;;;;;;;;;;;;;;5012171;28;19980;-66
2024/04/03 05:24:36;;;;;;;;;;;;;;;;;;5011920;28;19924;-66
2024/04/03 05:27:02;;;;;;;;;;;;;;;;;;5012224;28;19914;-65
2024/04/03 05:29:28;;;;;;;;;;;;;;;;;;5011912;28;19909;-65
2024/04/03 05:31:54;;;;;;;;;;;;;;;;;;5011907;28;19909;-65
2024/04/03 05:34:19;;;;;;;;;;;;;;;;;;5011794;28;20322;-66
2024/04/03 05:36:45;;;;;;;;;;;;;;;;;;5011969;28;19918;-65
2024/04/03 05:39:11;;;;;;;;;;;;;;;;;;5012071;28;19980;-66
2024/04/03 05:41:37;;;;;;;;;;;;;;;;;;5011070;28;19928;-66
2024/04/03 05:44:03;;;;;;;;;;;;;;;;;;5011844;28;20312;-66
2024/04/03 05:46:29;;;;;;;;;;;;;;;;;;5011743;28;19916;-66
2024/04/03 05:48:55;;;;;;;;;;;;;;;;;;5011815;28;19913;-65
2024/04/03 05:51:21;;;;;;;;;;;;;;;;;;5011227;28;19914;-65
2024/04/03 05:53:47;;;;;;;;;;;;;;;;;;5011711;28;19936;-65
2024/04/03 05:56:13;;;;;;;;;;;;;;;;;;5011741;28;20380;-65
2024/04/03 05:58:39;;;;;;;;;;;;;;;;;;5009540;28;19910;-65
2024/04/03 06:01:07;;;;;;;;;;;;;;;;;;5011135;28;19924;-65
2024/04/03 06:03:32;;;;;;;;;;;;;;;;;;5011370;28;19916;-65
2024/04/03 06:05:58;;;;;;;;;;;;;;;;;;5011570;28;19909;-65
2024/04/03 06:08:24;;;;;;;;;;;;;;;;;;5011082;28;19988;-66
2024/04/03 06:10:50;;;;;;;;;;;;;;;;;;5011229;28;19924;-66
2024/04/03 06:13:16;;;;;;;;;;;;;;;;;;5011156;28;20479;-65
2024/04/03 06:15:42;;;;;;;;;;;;;;;;;;5011316;28;19933;-66
2024/04/03 06:18:07;;;;;;;;;;;;;;;;;;5011486;28;19955;-65
2024/04/03 06:20:33;;;;;;;;;;;;;;;;;;5011044;28;19921;-66
2024/04/03 06:22:59;;;;;;;;;;;;;;;;;;5011699;28;20450;-65
2024/04/03 06:25:25;;;;;;;;;;;;;;;;;;5011320;28;19921;-67
2024/04/03 06:27:53;;;;;;;;;;;;;;;;;;5014539;28;19918;-66
2024/04/03 06:30:19;;;;;;;;;;;;;;;;;;5019842;28;19909;-66
2024/04/03 06:32:45;;;;;;;;;;;;;;;;;;5018473;28;20241;-67
2024/04/03 06:35:11;;;;;;;;;;;;;;;;;;5021372;28;20447;-66
2024/04/03 06:37:37;;;;;;;;;;;;;;;;;;5023107;28;19996;-67
2024/04/03 06:40:03;;;;;;;;;;;;;;;;;;5021250;28;19914;-66
2024/04/03 06:42:29;;;;;;;;;;;;;;;;;;5017972;28;19917;-65
2024/04/03 06:44:55;;;;;;;;;;;;;;;;;;5016728;28;19981;-66
2024/04/03 06:47:21;;;;;;;;;;;;;;;;;;5021984;28;20249;-66
2024/04/03 06:49:47;;;;;;;;;;;;;;;;;;5019356;28;19919;-66
2024/04/03 06:52:13;;;;;;;;;;;;;;;;;;5020200;28;19920;-66
2024/04/03 06:54:38;;;;;;;;;;;;;;;;;;5017578;28;19914;-66
2024/04/03 06:57:05;;;;;;;;;;;;;;;;;;5016811;28;20291;-66
2024/04/03 06:59:31;;;;;;;;;;;;;;;;;;5017752;28;20275;-66
2024/04/03 07:01:57;;;;;;;;;;;;;;;;;;5013526;28;19921;-66
2024/04/03 07:04:23;;;;;;;;;;;;;;;;;;5013162;28;19916;-66
2024/04/03 07:06:49;;;;;;;;;;;;;;;;;;5018173;28;20311;-66
2024/04/03 07:09:14;;;;;;;;;;;;;;;;;;5014402;28;19909;-65
2024/04/03 07:11:40;;;;;;;;;;;;;;;;;;5016635;28;20395;-66
2024/04/03 07:14:06;;;;;;;;;;;;;;;;;;5015686;28;19924;-66
2024/04/03 07:16:32;;;;;;;;;;;;;;;;;;5010505;28;19921;-66
2024/04/03 07:18:58;;;;;;;;;;;;;;;;;;5015968;28;19955;-66
2024/04/03 07:21:24;;;;;;;;;;;;;;;;;;5010481;28;20008;-66
2024/04/03 07:23:50;;;;;;;;;;;;;;;;;;5017738;28;19956;-66
2024/04/03 07:26:21;;;;;;;;;;;;;;;;;;5013874;28;19921;-66
2024/04/03 07:28:48;;;;;;;;;;;;;;;;;;5020530;28;19972;-66
2024/04/03 07:31:14;;;;;;;;;;;;;;;;;;5014841;28;19925;-66
2024/04/03 07:33:40;;;;;;;;;;;;;;;;;;5019180;28;19909;-65
2024/04/03 07:36:06;;;;;;;;;;;;;;;;;;5013866;28;20339;-67
2024/04/03 07:38:32;;;;;;;;;;;;;;;;;;5014074;28;19963;-66
2024/04/03 07:40:58;;;;;;;;;;;;;;;;;;5013551;28;19928;-66
2024/04/03 07:43:24;;;;;;;;;;;;;;;;;;5013870;28;19916;-66
2024/04/03 07:45:50;;;;;;;;;;;;;;;;;;5013646;28;19913;-66
2024/04/03 07:48:15;;;;;;;;;;;;;;;;;;5013924;28;19909;-66
2024/04/03 07:50:41;;;;;;;;;;;;;;;;;;5013848;28;19985;-67
2024/04/03 07:53:07;;;;;;;;;;;;;;;;;;5013565;28;19920;-66
2024/04/03 07:55:38;;;;;;;;;;;;;;;;;;5013500;28;20101;-66
2024/04/03 07:58:04;;;;;;;;;;;;;;;;;;5009101;28;19914;-67
2024/04/03 08:00:30;;;;;;;;;;;;;;;;;;5013504;28;19920;-67
2024/04/03 08:02:56;;;;;;;;;;;;;;;;;;5013152;28;19987;-67
2024/04/03 08:05:22;;;;;;;;;;;;;;;;;;5013605;28;20099;-66
2024/04/03 08:07:48;;;;;;;;;;;;;;;;;;5011465;28;19952;-67
2024/04/03 08:10:14;;;;;;;;;;;;;;;;;;5009991;28;20059;-66
2024/04/03 08:12:40;;;;;;;;;;;;;;;;;;5013356;28;20352;-67
2024/04/03 08:15:06;;;;;;;;;;;;;;;;;;5013367;28;19921;-67
2024/04/03 08:17:32;;;;;;;;;;;;;;;;;;5013400;28;20024;-67
2024/04/03 08:19:58;;;;;;;;;;;;;;;;;;5013295;28;19992;-67
2024/04/03 08:22:24;;;;;;;;;;;;;;;;;;5013046;28;19916;-66
2024/04/03 08:24:50;;;;;;;;;;;;;;;;;;5012961;28;19918;-66
2024/04/03 08:27:16;;;;;;;;;;;;;;;;;;5013309;28;19910;-66
2024/04/03 08:29:46;;;;;;;;;;;;;;;;;;5012958;28;19909;-66
2024/04/03 08:32:12;;;;;;;;;;;;;;;;;;5012665;28;20402;-66
2024/04/03 08:34:38;;;;;;;;;;;;;;;;;;5012792;28;20008;-68
2024/04/03 08:37:04;;;;;;;;;;;;;;;;;;5017288;28;20371;-67
2024/04/03 08:39:30;;;;;;;;;;;;;;;;;;5016072;28;20396;-65
2024/04/03 08:41:56;;;;;;;;;;;;;;;;;;5012964;28;19922;-66
2024/04/03 08:44:22;;;;;;;;;;;;;;;;;;5013079;28;20273;-67
2024/04/03 08:46:48;;;;;;;;;;;;;;;;;;5012945;28;19945;-66
2024/04/03 08:49:14;;;;;;;;;;;;;;;;;;5012822;28;19910;-66
2024/04/03 08:51:40;;;;;;;;;;;;;;;;;;5011422;28;20370;-66
2024/04/03 08:54:05;;;;;;;;;;;;;;;;;;5012697;28;19913;-67
2024/04/03 08:56:31;;;;;;;;;;;;;;;;;;5012903;28;19917;-66
2024/04/03 08:58:57;;;;;;;;;;;;;;;;;;5012715;28;19914;-66
2024/04/03 09:01:23;;;;;;;;;;;;;;;;;;5012069;28;19918;-66
2024/04/03 09:03:49;;;;;;;;;;;;;;;;;;5012483;28;19941;-66
2024/04/03 09:06:15;;;;;;;;;;;;;;;;;;5012857;28;20386;-67
2024/04/03 09:08:41;;;;;;;;;;;;;;;;;;5012571;28;19955;-66
2024/04/03 09:11:07;;;;;;;;;;;;;;;;;;5012291;28;20351;-66
2024/04/03 09:13:33;;;;;;;;;;;;;;;;;;5012295;28;19909;-67
2024/04/03 09:16:01;;;;;;;;;;;;;;;;;;5012539;28;19915;-66
2024/04/03 09:18:27;;;;;;;;;;;;;;;;;;5012666;28;19923;-66
2024/04/03 09:20:54;;;;;;;;;;;;;;;;;;5011832;28;20303;-66
2024/04/03 09:23:20;;;;;;;;;;;;;;;;;;5012717;28;19917;-67
2024/04/03 09:25:45;;;;;;;;;;;;;;;;;;5012212;28;20005;-67
2024/04/03 09:28:11;;;;;;;;;;;;;;;;;;5012143;28;19928;-67
2024/04/03 09:30:37;;;;;;;;;;;;;;;;;;5012011;28;20407;-66
2024/04/03 09:33:04;;;;;;;;;;;;;;;;;;5011863;28;19916;-66
2024/04/03 09:35:30;;;;;;;;;;;;;;;;;;5011857;28;19961;-67
2024/04/03 09:37:55;;;;;;;;;;;;;;;;;;5012454;28;19916;-66
2024/04/03 09:40:21;;;;;;;;;;;;;;;;;;5011698;28;19918;-66
2024/04/03 09:42:47;;;;;;;;;;;;;;;;;;5011948;28;19914;-66
2024/04/03 09:45:13;;;;;;;;;;;;;;;;;;5012041;28;19910;-66
2024/04/03 09:47:39;;;;;;;;;;;;;;;;;;5011830;28;20364;-66
2024/04/03 09:50:05;;;;;;;;;;;;;;;;;;5011196;28;19948;-66
2024/04/03 09:52:31;;;;;;;;;;;;;;;;;;5011603;28;20292;-66
2024/04/03 09:54:57;;;;;;;;;;;;;;;;;;5011597;28;20268;-66
2024/04/03 09:57:23;;;;;;;;;;;;;;;;;;5011723;28;19924;-66
2024/04/03 09:59:49;;;;;;;;;;;;;;;;;;5011500;28;20330;-66
2024/04/03 10:02:16;;;;;;;;;;;;;;;;;;5011153;28;19913;-66
2024/04/03 10:04:42;;;;;;;;;;;;;;;;;;5010987;28;20430;-67
2024/04/03 10:07:08;;;;;;;;;;;;;;;;;;5011625;28;19941;-67
2024/04/03 10:09:34;;;;;;;;;;;;;;;;;;5011443;28;20326;-66
2024/04/03 10:12:01;;;;;;;;;;;;;;;;;;5011171;28;19910;-66
2024/04/03 10:14:27;;;;;;;;;;;;;;;;;;5011119;28;20368;-66
2024/04/03 10:16:53;;;;;;;;;;;;;;;;;;5011503;28;19917;-66
2024/04/03 10:19:19;;;;;;;;;;;;;;;;;;5011242;28;20545;-66
2024/04/03 10:21:45;;;;;;;;;;;;;;;;;;5011023;28;20004;-65
2024/04/03 10:24:11;;;;;;;;;;;;;;;;;;5011048;28;20303;-65
2024/04/03 10:26:37;;;;;;;;;;;;;;;;;;5011331;28;19914;-66
2024/04/03 10:29:05;;;;;;;;;;;;;;;;;;5011265;28;19909;-66
2024/04/03 10:31:31;;;;;;;;;;;;;;;;;;5014979;28;19920;-66
2024/04/03 10:33:57;;;;;;;;;;;;;;;;;;5011109;28;19917;-67
2024/04/03 10:36:23;;;;;;;;;;;;;;;;;;5011018;28;19925;-65
2024/04/03 10:38:49;;;;;;;;;;;;;;;;;;5011209;28;19910;-65
2024/04/03 10:41:15;;;;;;;;;;;;;;;;;;5010488;28;19922;-66
2024/04/03 10:43:41;;;;;;;;;;;;;;;;;;5011022;28;19945;-66
2024/04/03 10:46:11;;;;;;;;;;;;;;;;;;5011094;28;19929;-65
2024/04/03 10:48:38;;;;;;;;;;;;;;;;;;5010989;28;19975;-68
2024/04/03 10:51:04;;;;;;;;;;;;;;;;;;5010641;28;19914;-66
2024/04/03 10:53:31;;;;;;;;;;;;;;;;;;5011111;28;20430;-66
2024/04/03 10:55:57;;;;;;;;;;;;;;;;;;5010894;28;20413;-66
2024/04/03 10:58:23;;;;;;;;;;;;;;;;;;5010982;28;19945;-66
2024/04/03 11:00:50;;;;;;;;;;;;;;;;;;5010954;28;20436;-66
2024/04/03 11:03:16;;;;;;;;;;;;;;;;;;5013867;28;19917;-65
2024/04/03 11:05:42;;;;;;;;;;;;;;;;;;5014831;28;20531;-66
2024/04/03 11:08:12;;;;;;;;;;;;;;;;;;5014956;28;19913;-66
2024/04/03 11:10:38;;;;;;;;;;;;;;;;;;5014607;28;19909;-66
2024/04/03 11:13:04;;;;;;;;;;;;;;;;;;5014393;28;19914;-66
2024/04/03 11:15:30;;;;;;;;;;;;;;;;;;5014664;28;20308;-65
2024/04/03 11:17:56;;;;;;;;;;;;;;;;;;5014354;28;19913;-63
2024/04/03 11:20:24;;;;;;;;;;;;;;;;;;5014335;28;19917;-66
2024/04/03 11:22:52;;;;;;;;;;;;;;;;;;5014424;28;19980;-65
2024/04/03 11:25:18;;;;;;;;;;;;;;;;;;5014291;28;20264;-65
2024/04/03 11:27:44;;;;;;;;;;;;;;;;;;5014676;28;20298;-65
2024/04/03 11:30:10;;;;;;;;;;;;;;;;;;5014223;28;20012;-66
2024/04/03 11:32:36;;;;;;;;;;;;;;;;;;5014046;28;19949;-66
2024/04/03 11:35:04;;;;;;;;;;;;;;;;;;5014228;28;19920;-65
2024/04/03 11:37:29;;;;;;;;;;;;;;;;;;5014252;28;19909;-66
2024/04/03 11:39:55;;;;;;;;;;;;;;;;;;5014155;28;19909;-65
2024/04/03 11:42:21;;;;;;;;;;;;;;;;;;5013617;28;19913;-66
2024/04/03 11:44:47;;;;;;;;;;;;;;;;;;5013786;28;21167;-65
2024/04/03 11:47:14;;;;;;;;;;;;;;;;;;5024211;28;19910;-66
2024/04/03 11:49:41;;;;;;;;;;;;;;;;;;5014190;28;19909;-65
2024/04/03 11:52:06;;;;;;;;;;;;;;;;;;5013624;28;20036;-64
2024/04/03 11:54:32;;;;;;;;;;;;;;;;;;5013838;28;19913;-65
2024/04/03 11:56:59;;;;;;;;;;;;;;;;;;5014174;28;19929;-65
2024/04/03 11:59:25;;;;;;;;;;;;;;;;;;5011855;28;19916;-66
2024/04/03 12:01:51;;;;;;;;;;;;;;;;;;5013410;28;20399;-65
2024/04/03 12:04:17;;;;;;;;;;;;;;;;;;5013729;28;19914;-65
2024/04/03 12:06:43;;;;;;;;;;;;;;;;;;5013888;28;19916;-65
2024/04/03 12:09:09;;;;;;;;;;;;;;;;;;5014063;28;19956;-66
2024/04/03 12:11:35;;;;;;;;;;;;;;;;;;5013398;28;20298;-66
2024/04/03 12:14:02;;;;;;;;;;;;;;;;;;5013950;28;19910;-66
2024/04/03 12:16:30;;;;;;;;;;;;;;;;;;5013802;28;19963;-66
2024/04/03 12:21:41;;;;;;;;;;;;;;;;;;5013686;28;19924;-66
2024/04/03 12:24:06;;;;;;;;;;;;;;;;;;5013620;28;20396;-65
2024/04/03 12:26:32;;;;;;;;;;;;;;;;;;5017176;28;19989;-66
2024/04/03 12:28:58;;;;;;;;;;;;;;;;;;5018132;28;20314;-66
2024/04/03 12:31:24;;;;;;;;;;;;;;;;;;5017638;28;20072;-65
2024/04/03 12:33:51;;;;;;;;;;;;;;;;;;5017596;28;20299;-66
2024/04/03 12:36:18;;;;;;;;;;;;;;;;;;5019344;28;20345;-66
2024/04/03 12:38:44;;;;;;;;;;;;;;;;;;5017319;28;19909;-66
2024/04/03 12:41:10;;;;;;;;;;;;;;;;;;5017156;28;19914;-66
2024/04/03 12:43:36;;;;;;;;;;;;;;;;;;5017595;28;19924;-66
2024/04/03 12:46:02;;;;;;;;;;;;;;;;;;5017642;28;19909;-67
2024/04/03 12:48:28;;;;;;;;;;;;;;;;;;5018847;28;19959;-65
2024/04/03 12:50:55;;;;;;;;;;;;;;;;;;5016880;28;19910;-66
2024/04/03 12:53:21;;;;;;;;;;;;;;;;;;5017058;28;19960;-65
2024/04/03 12:55:47;;;;;;;;;;;;;;;;;;5016650;28;19916;-65
2024/04/03 12:58:13;;;;;;;;;;;;;;;;;;5018233;28;19909;-65
2024/04/03 13:00:41;;;;;;;;;;;;;;;;;;5016713;28;19920;-65
2024/04/03 13:03:07;;;;;;;;;;;;;;;;;;5015530;28;19921;-66
2024/04/03 13:05:33;;;;;;;;;;;;;;;;;;5016345;28;19967;-65
2024/04/03 13:07:59;;;;;;;;;;;;;;;;;;5016334;28;19909;-66
2024/04/03 13:10:25;;;;;;;;;;;;;;;;;;5017768;28;20070;-65
2024/04/03 13:12:51;;;;;;;;;;;;;;;;;;5015903;28;19909;-65
2024/04/03 13:15:17;;;;;;;;;;;;;;;;;;5017352;28;19917;-66
2024/04/03 13:17:43;;;;;;;;;;;;;;;;;;5012432;28;19921;-66
2024/04/03 13:20:09;;;;;;;;;;;;;;;;;;5009797;28;19948;-66
2024/04/03 13:22:35;;;;;;;;;;;;;;;;;;5012911;28;20018;-65
2024/04/03 13:25:01;;;;;;;;;;;;;;;;;;5011199;28;19957;-64
2024/04/03 13:27:27;;;;;;;;;;;;;;;;;;5013963;28;19920;-66
2024/04/03 13:29:53;;;;;;;;;;;;;;;;;;5012380;28;19910;-65
2024/04/03 13:32:19;;;;;;;;;;;;;;;;;;5013204;28;19910;-66
2024/04/03 13:34:45;;;;;;;;;;;;;;;;;;5011605;28;19959;-65
2024/04/03 13:37:10;;;;;;;;;;;;;;;;;;5012085;28;19910;-65
2024/04/03 13:39:36;;;;;;;;;;;;;;;;;;5013352;28;19909;-66
2024/04/03 13:42:03;;;;;;;;;;;;;;;;;;5011832;28;19920;-66
2024/04/03 13:44:29;;;;;;;;;;;;;;;;;;5011360;28;20367;-65
2024/04/03 13:46:55;;;;;;;;;;;;;;;;;;5013380;28;19909;-66
2024/04/03 13:49:21;;;;;;;;;;;;;;;;;;5011675;28;20383;-66
2024/04/03 13:51:47;;;;;;;;;;;;;;;;;;5011667;28;19963;-65
2024/04/03 13:54:14;;;;;;;;;;;;;;;;;;5011509;28;20395;-67
2024/04/03 13:56:40;;;;;;;;;;;;;;;;;;5011501;28;19913;-66
2024/04/03 13:59:06;;;;;;;;;;;;;;;;;;5011923;28;19960;-66
2024/04/03 14:01:32;;;;;;;;;;;;;;;;;;5011189;28;20332;-66
2024/04/03 14:03:58;;;;;;;;;;;;;;;;;;5011407;28;19916;-65
2024/04/03 14:06:24;;;;;;;;;;;;;;;;;;5010779;28;19914;-66
2024/04/03 14:08:53;;;;;;;;;;;;;;;;;;5011508;28;19913;-66
2024/04/03 14:11:19;;;;;;;;;;;;;;;;;;5011127;28;19909;-66
2024/04/03 14:13:48;;;;;;;;;;;;;;;;;;5011474;28;19913;-66
2024/04/03 14:16:13;;;;;;;;;;;;;;;;;;5011055;28;20374;-65
2024/04/03 14:18:39;;;;;;;;;;;;;;;;;;5011507;28;20004;-66
2024/04/03 14:21:05;;;;;;;;;;;;;;;;;;5011275;28;19914;-65
2024/04/03 14:23:31;;;;;;;;;;;;;;;;;;5011140;28;19959;-66
2024/04/03 14:25:57;;;;;;;;;;;;;;;;;;5011262;28;19992;-65
2024/04/03 14:28:23;;;;;;;;;;;;;;;;;;5014382;28;20311;-66
2024/04/03 14:30:49;;;;;;;;;;;;;;;;;;5013410;28;20287;-66
2024/04/03 14:33:15;;;;;;;;;;;;;;;;;;5013388;28;19910;-66
2024/04/03 14:35:41;;;;;;;;;;;;;;;;;;5012711;28;19918;-66
2024/04/03 14:38:07;;;;;;;;;;;;;;;;;;5016485;28;19909;-66
2024/04/03 14:40:33;;;;;;;;;;;;;;;;;;5017701;28;19982;-66
2024/04/03 14:43:05;;;;;;;;;;;;;;;;;;5016988;28;19917;-65
2024/04/03 14:45:31;;;;;;;;;;;;;;;;;;5017378;28;20376;-66
2024/04/03 14:47:57;;;;;;;;;;;;;;;;;;5016871;28;19920;-66
2024/04/03 14:50:24;;;;;;;;;;;;;;;;;;5015793;28;19909;-66
2024/04/03 14:52:51;;;;;;;;;;;;;;;;;;5014917;28;19914;-65
2024/04/03 14:55:17;;;;;;;;;;;;;;;;;;5014637;28;19918;-64
2024/04/03 14:57:43;;;;;;;;;;;;;;;;;;5015023;28;19909;-66
2024/04/03 15:00:10;;;;;;;;;;;;;;;;;;5014830;28;20402;-66
2024/04/03 15:02:35;;;;;;;;;;;;;;;;;;5014466;28;19992;-66
2024/04/03 15:05:01;;;;;;;;;;;;;;;;;;5014701;28;20012;-66
2024/04/03 15:07:27;;;;;;;;;;;;;;;;;;5014569;28;19968;-67
2024/04/03 15:09:53;;;;;;;;;;;;;;;;;;5014988;28;19909;-65
2024/04/03 15:12:19;;;;;;;;;;;;;;;;;;5014932;28;19913;-65
2024/04/03 15:14:47;;;;;;;;;;;;;;;;;;5015020;28;19971;-66
2024/04/03 15:17:12;;;;;;;;;;;;;;;;;;5014963;28;19917;-65
2024/04/03 15:19:38;;;;;;;;;;;;;;;;;;5014775;28;20292;-65
2024/04/03 15:22:04;;;;;;;;;;;;;;;;;;5014035;28;19917;-66
2024/04/03 15:24:30;;;;;;;;;;;;;;;;;;5014452;28;19916;-65
2024/04/03 15:26:56;;;;;;;;;;;;;;;;;;5014373;28;19959;-65
2024/04/03 15:29:23;;;;;;;;;;;;;;;;;;5014122;28;19910;-66
2024/04/03 15:31:48;;;;;;;;;;;;;;;;;;5014309;28;19917;-65
2024/04/03 15:34:14;;;;;;;;;;;;;;;;;;5014443;28;19917;-66
2024/04/03 15:36:41;;;;;;;;;;;;;;;;;;5013899;28;19917;-65
2024/04/03 15:39:09;;;;;;;;;;;;;;;;;;5014312;28;19909;-66
2024/04/03 15:41:35;;;;;;;;;;;;;;;;;;5014043;28;20299;-65
2024/04/03 15:44:01;;;;;;;;;;;;;;;;;;5014205;28;20000;-66
2024/04/03 15:46:27;;;;;;;;;;;;;;;;;;5013736;28;20331;-65
2024/04/03 15:48:53;;;;;;;;;;;;;;;;;;5013530;28;19910;-65
2024/04/03 15:51:19;;;;;;;;;;;;;;;;;;5013405;28;19952;-65
2024/04/03 15:53:45;;;;;;;;;;;;;;;;;;5013804;28;19964;-66
2024/04/03 15:56:11;;;;;;;;;;;;;;;;;;5013469;28;19995;-65
2024/04/03 15:58:38;;;;;;;;;;;;;;;;;;5013465;28;20416;-65
2024/04/03 16:01:04;;;;;;;;;;;;;;;;;;5013333;28;19917;-66
2024/04/03 16:03:30;;;;;;;;;;;;;;;;;;5013659;28;20004;-65
2024/04/03 16:05:56;;;;;;;;;;;;;;;;;;5013532;28;20025;-65
2024/04/03 16:08:22;;;;;;;;;;;;;;;;;;5013070;28;20429;-65
2024/04/03 16:10:49;;;;;;;;;;;;;;;;;;5013427;28;19963;-65
2024/04/03 16:13:15;;;;;;;;;;;;;;;;;;5013266;28;20674;-66
2024/04/03 16:15:41;;;;;;;;;;;;;;;;;;5012896;28;19920;-66
2024/04/03 16:18:07;;;;;;;;;;;;;;;;;;5013744;28;19914;-65
2024/04/03 16:20:33;;;;;;;;;;;;;;;;;;5011546;28;19939;-65
2024/04/03 16:22:59;;;;;;;;;;;;;;;;;;5013277;28;19914;-65
2024/04/03 16:25:24;;;;;;;;;;;;;;;;;;5012919;28;19917;-65
2024/04/03 16:27:51;;;;;;;;;;;;;;;;;;5013300;28;19996;-66
2024/04/03 16:30:17;;;;;;;;;;;;;;;;;;5012975;28;19910;-65
2024/04/03 16:32:44;;;;;;;;;;;;;;;;;;5013613;28;19925;-65
2024/04/03 16:35:11;;;;;;;;;;;;;;;;;;5013805;28;20004;-65
2024/04/03 16:37:37;;;;;;;;;;;;;;;;;;5016527;28;19928;-66
2024/04/03 16:40:08;;;;;;;;;;;;;;;;;;5023137;28;20295;-66
2024/04/03 16:42:34;;;;;;;;;;;;;;;;;;5013618;28;20437;-66
2024/04/03 16:45:00;;;;;;;;;;;;;;;;;;5012809;28;19922;-65